Washington — WDC3825 — position and weather

sailwx.info

Track history (hours):
 
Tides and Currents Weather Stations Pressure Air Temp Water Temp Dewpoint Dewpoint Depression Visibility Wind Speed Wind Dir Waves Ship Positions

Washington

Owner: Peoria Harbor Service, Creve Coeur, IL. More information available from US FCC via Universal Licensing System.

Last reported at 2015-Feb-10 16:33 UTC. Time now 2015-Mar-04 12:50 UTC.
Position N 45°39' W 122°45'.
Warning: this ship's position is 21 days out of date.

Length 29 m; draft 5 m.

Type: Tug. MMSI: 367530040.

Date/timePositionNaut miles runAvg speedWind from/ knotsBaromVisibWave heightAir tempDewpointWater temp
2015-Feb-10 16:33N 45°39' W 122°45'0 0.0
2015-Feb-10 15:33N 45°39' W 122°45'0 0.0
2015-Feb-10 14:33N 45°39' W 122°45'0 0.0
2015-Feb-10 13:33N 45°39' W 122°45'  
2015-Feb-04 04:31N 45°34' W 122°44'4 3.0
2015-Feb-04 03:20N 45°36' W 122°47'1 0.6
2015-Feb-04 02:27N 45°37' W 122°47'4 0.5
2015-Feb-03 18:33N 45°34' W 122°44'0 0.0
2015-Feb-03 17:33N 45°34' W 122°44'0 0.0
2015-Feb-03 16:33N 45°34' W 122°44'0 0.0
2015-Feb-03 15:33N 45°34' W 122°44'0 0.0
2015-Feb-02 07:33N 45°34' W 122°44'0 0.0
2015-Feb-02 06:33N 45°34' W 122°44'0 0.0
2015-Feb-02 05:33N 45°34' W 122°44'0 0.0
2015-Feb-02 04:33N 45°34' W 122°44'0 0.0
2015-Feb-02 03:32N 45°34' W 122°44'0 0.0
2015-Feb-02 02:32N 45°34' W 122°44'0 0.0
2015-Feb-02 01:33N 45°34' W 122°44'0 0.0
2015-Feb-02 00:33N 45°34' W 122°44'0 0.0
2015-Feb-01 23:33N 45°34' W 122°44'0 0.0
2015-Feb-01 22:33N 45°34' W 122°44'0 0.0
2015-Feb-01 21:33N 45°34' W 122°44'0 0.0
2015-Feb-01 07:17N 45°34' W 122°44'0 0.0
2015-Feb-01 02:33N 45°34' W 122°44'0 0.0
2015-Feb-01 01:14N 45°34' W 122°44'0 0.0
2015-Feb-01 00:23N 45°34' W 122°44'0 0.0
2015-Jan-31 23:17N 45°34' W 122°44'0 0.0
2015-Jan-31 21:23N 45°34' W 122°44'0 0.0
2015-Jan-31 20:16N 45°34' W 122°44'0 0.1
2015-Jan-31 17:23N 45°34' W 122°44'  
Track history (hours):
 
Tides and Currents Weather Stations Pressure Air Temp Water Temp Dewpoint Dewpoint Depression Visibility Wind Speed Wind Dir Waves Ship Positions

Washington

Owner: Peoria Harbor Service, Creve Coeur, IL. More information available from US FCC via Universal Licensing System.

Last reported at 2015-Feb-10 16:33 UTC. Time now 2015-Mar-04 12:50 UTC.
Position N 45°39' W 122°45'.
Warning: this ship's position is 21 days out of date.

Length 29 m; draft 5 m.

Type: Tug. MMSI: 367530040.

Date/timePositionNaut miles runAvg speedWind from/ knotsBaromVisibWave heightAir tempDewpointWater temp
2015-Feb-10 16:33N 45°39' W 122°45'0 0.0
2015-Feb-10 15:33N 45°39' W 122°45'0 0.0
2015-Feb-10 14:33N 45°39' W 122°45'0 0.0
2015-Feb-10 13:33N 45°39' W 122°45'  
2015-Feb-04 04:31N 45°34' W 122°44'4 3.0
2015-Feb-04 03:20N 45°36' W 122°47'1 0.6
2015-Feb-04 02:27N 45°37' W 122°47'4 0.5
2015-Feb-03 18:33N 45°34' W 122°44'0 0.0
2015-Feb-03 17:33N 45°34' W 122°44'0 0.0
2015-Feb-03 16:33N 45°34' W 122°44'0 0.0
2015-Feb-03 15:33N 45°34' W 122°44'0 0.0
2015-Feb-02 07:33N 45°34' W 122°44'0 0.0
2015-Feb-02 06:33N 45°34' W 122°44'0 0.0
2015-Feb-02 05:33N 45°34' W 122°44'0 0.0
2015-Feb-02 04:33N 45°34' W 122°44'0 0.0
2015-Feb-02 03:32N 45°34' W 122°44'0 0.0
2015-Feb-02 02:32N 45°34' W 122°44'0 0.0
2015-Feb-02 01:33N 45°34' W 122°44'0 0.0
2015-Feb-02 00:33N 45°34' W 122°44'0 0.0
2015-Feb-01 23:33N 45°34' W 122°44'0 0.0
2015-Feb-01 22:33N 45°34' W 122°44'0 0.0
2015-Feb-01 21:33N 45°34' W 122°44'0 0.0
2015-Feb-01 07:17N 45°34' W 122°44'0 0.0
2015-Feb-01 02:33N 45°34' W 122°44'0 0.0
2015-Feb-01 01:14N 45°34' W 122°44'0 0.0
2015-Feb-01 00:23N 45°34' W 122°44'0 0.0
2015-Jan-31 23:17N 45°34' W 122°44'0 0.0
2015-Jan-31 21:23N 45°34' W 122°44'0 0.0
2015-Jan-31 20:16N 45°34' W 122°44'0 0.1
2015-Jan-31 17:23N 45°34' W 122°44'  

Dump ship's entire track history